sensor_id;sensor_type;location;lat;lon;timestamp;P1;P2;P0
56175;PMS5003;63065;51.082;17.016;2023-03-24T00:01:06;17;15;
56175;PMS5003;63065;51.082;17.016;2023-03-24T00:03:31;13;13;
56175;PMS5003;63065;51.082;17.016;2023-03-24T00:05:56;15;14;
56175;PMS5003;63065;51.082;17.016;2023-03-24T00:08:22;14;13;
56175;PMS5003;63065;51.082;17.016;2023-03-24T00:10:47;13;13;
56175;PMS5003;63065;51.082;17.016;2023-03-24T00:13:12;14;14;
56175;PMS5003;63065;51.082;17.016;2023-03-24T00:15:38;16;16;
56175;PMS5003;63065;51.082;17.016;2023-03-24T00:18:04;12;12;
56175;PMS5003;63065;51.082;17.016;2023-03-24T00:20:28;15;11;
56175;PMS5003;63065;51.082;17.016;2023-03-24T00:22:54;12;12;
56175;PMS5003;63065;51.082;17.016;2023-03-24T00:25:20;11;11;
56175;PMS5003;63065;51.082;17.016;2023-03-24T00:27:45;11;9;
56175;PMS5003;63065;51.082;17.016;2023-03-24T00:30:11;11;10;
56175;PMS5003;63065;51.082;17.016;2023-03-24T00:32:36;13;13;
56175;PMS5003;63065;51.082;17.016;2023-03-24T00:35:02;11;9;
56175;PMS5003;63065;51.082;17.016;2023-03-24T00:37:28;11;11;
56175;PMS5003;63065;51.082;17.016;2023-03-24T00:39:53;11;11;
56175;PMS5003;63065;51.082;17.016;2023-03-24T00:42:19;12;12;
56175;PMS5003;63065;51.082;17.016;2023-03-24T00:44:45;11;11;
56175;PMS5003;63065;51.082;17.016;2023-03-24T00:47:11;13;13;
56175;PMS5003;63065;51.082;17.016;2023-03-24T00:49:36;14;13;
56175;PMS5003;63065;51.082;17.016;2023-03-24T00:52:03;12;12;
56175;PMS5003;63065;51.082;17.016;2023-03-24T00:54:27;14;14;
56175;PMS5003;63065;51.082;17.016;2023-03-24T00:56:53;14;14;
56175;PMS5003;63065;51.082;17.016;2023-03-24T00:59:18;13;13;
56175;PMS5003;63065;51.082;17.016;2023-03-24T01:01:44;12;12;
56175;PMS5003;63065;51.082;17.016;2023-03-24T01:04:10;13;13;
56175;PMS5003;63065;51.082;17.016;2023-03-24T01:06:35;15;15;
56175;PMS5003;63065;51.082;17.016;2023-03-24T01:09:01;10;10;
56175;PMS5003;63065;51.082;17.016;2023-03-24T01:11:26;14;12;
56175;PMS5003;63065;51.082;17.016;2023-03-24T01:13:52;12;12;
56175;PMS5003;63065;51.082;17.016;2023-03-24T01:16:17;17;17;
56175;PMS5003;63065;51.082;17.016;2023-03-24T01:18:43;16;14;
56175;PMS5003;63065;51.082;17.016;2023-03-24T01:21:09;13;11;
56175;PMS5003;63065;51.082;17.016;2023-03-24T01:23:34;16;15;
56175;PMS5003;63065;51.082;17.016;2023-03-24T01:26:03;14;12;
56175;PMS5003;63065;51.082;17.016;2023-03-24T01:28:26;16;16;
56175;PMS5003;63065;51.082;17.016;2023-03-24T01:30:51;16;15;
56175;PMS5003;63065;51.082;17.016;2023-03-24T01:33:19;16;16;
56175;PMS5003;63065;51.082;17.016;2023-03-24T01:35:42;17;15;
56175;PMS5003;63065;51.082;17.016;2023-03-24T01:38:08;13;13;
56175;PMS5003;63065;51.082;17.016;2023-03-24T01:40:34;16;15;
56175;PMS5003;63065;51.082;17.016;2023-03-24T01:42:59;14;13;
56175;PMS5003;63065;51.082;17.016;2023-03-24T01:47:50;13;13;
56175;PMS5003;63065;51.082;17.016;2023-03-24T01:50:15;16;15;
56175;PMS5003;63065;51.082;17.016;2023-03-24T01:52:41;15;14;
56175;PMS5003;63065;51.082;17.016;2023-03-24T01:55:08;13;13;
56175;PMS5003;63065;51.082;17.016;2023-03-24T01:57:33;15;15;
56175;PMS5003;63065;51.082;17.016;2023-03-24T01:59:59;15;13;
56175;PMS5003;63065;51.082;17.016;2023-03-24T02:02:23;17;16;
56175;PMS5003;63065;51.082;17.016;2023-03-24T02:04:51;16;16;
56175;PMS5003;63065;51.082;17.016;2023-03-24T02:07:16;17;13;
56175;PMS5003;63065;51.082;17.016;2023-03-24T02:09:40;16;16;
56175;PMS5003;63065;51.082;17.016;2023-03-24T02:12:06;16;16;
56175;PMS5003;63065;51.082;17.016;2023-03-24T02:14:32;16;13;
56175;PMS5003;63065;51.082;17.016;2023-03-24T02:17:02;13;12;
56175;PMS5003;63065;51.082;17.016;2023-03-24T02:19:31;12;12;
56175;PMS5003;63065;51.082;17.016;2023-03-24T02:21:56;14;11;
56175;PMS5003;63065;51.082;17.016;2023-03-24T02:29:11;15;15;
56175;PMS5003;63065;51.082;17.016;2023-03-24T02:31:39;12;11;
56175;PMS5003;63065;51.082;17.016;2023-03-24T02:36:29;14;13;
56175;PMS5003;63065;51.082;17.016;2023-03-24T02:41:14;11;10;
56175;PMS5003;63065;51.082;17.016;2023-03-24T02:43:41;13;11;
56175;PMS5003;63065;51.082;17.016;2023-03-24T02:46:08;14;11;
56175;PMS5003;63065;51.082;17.016;2023-03-24T02:48:31;11;11;
56175;PMS5003;63065;51.082;17.016;2023-03-24T02:50:58;16;11;
56175;PMS5003;63065;51.082;17.016;2023-03-24T02:53:23;12;12;
56175;PMS5003;63065;51.082;17.016;2023-03-24T02:55:49;16;14;
56175;PMS5003;63065;51.082;17.016;2023-03-24T02:58:13;12;12;
56175;PMS5003;63065;51.082;17.016;2023-03-24T03:00:39;9;9;
56175;PMS5003;63065;51.082;17.016;2023-03-24T03:03:04;10;10;
56175;PMS5003;63065;51.082;17.016;2023-03-24T03:05:30;14;12;
56175;PMS5003;63065;51.082;17.016;2023-03-24T03:07:54;12;12;
56175;PMS5003;63065;51.082;17.016;2023-03-24T03:10:21;11;10;
56175;PMS5003;63065;51.082;17.016;2023-03-24T03:12:47;13;10;
56175;PMS5003;63065;51.082;17.016;2023-03-24T03:15:12;13;12;
56175;PMS5003;63065;51.082;17.016;2023-03-24T03:17:37;13;13;
56175;PMS5003;63065;51.082;17.016;2023-03-24T03:20:04;8;8;
56175;PMS5003;63065;51.082;17.016;2023-03-24T03:22:30;10;10;
56175;PMS5003;63065;51.082;17.016;2023-03-24T03:24:55;12;12;
56175;PMS5003;63065;51.082;17.016;2023-03-24T03:27:21;13;11;
56175;PMS5003;63065;51.082;17.016;2023-03-24T03:29:45;13;11;
56175;PMS5003;63065;51.082;17.016;2023-03-24T03:32:11;14;14;
56175;PMS5003;63065;51.082;17.016;2023-03-24T03:34:37;13;13;
56175;PMS5003;63065;51.082;17.016;2023-03-24T03:37:03;15;12;
56175;PMS5003;63065;51.082;17.016;2023-03-24T03:39:28;13;13;
56175;PMS5003;63065;51.082;17.016;2023-03-24T03:41:53;15;15;
56175;PMS5003;63065;51.082;17.016;2023-03-24T03:44:19;13;11;
56175;PMS5003;63065;51.082;17.016;2023-03-24T03:46:44;13;13;
56175;PMS5003;63065;51.082;17.016;2023-03-24T03:49:10;15;13;
56175;PMS5003;63065;51.082;17.016;2023-03-24T03:51:35;17;17;
56175;PMS5003;63065;51.082;17.016;2023-03-24T03:54:02;14;14;
56175;PMS5003;63065;51.082;17.016;2023-03-24T03:56:28;11;11;
56175;PMS5003;63065;51.082;17.016;2023-03-24T03:58:52;14;14;
56175;PMS5003;63065;51.082;17.016;2023-03-24T04:01:18;10;10;
56175;PMS5003;63065;51.082;17.016;2023-03-24T04:03:49;18;15;
56175;PMS5003;63065;51.082;17.016;2023-03-24T04:06:11;14;12;
56175;PMS5003;63065;51.082;17.016;2023-03-24T04:08:39;15;13;
56175;PMS5003;63065;51.082;17.016;2023-03-24T04:11:07;18;18;
56175;PMS5003;63065;51.082;17.016;2023-03-24T04:13:27;16;14;
56175;PMS5003;63065;51.082;17.016;2023-03-24T04:15:53;18;16;
56175;PMS5003;63065;51.082;17.016;2023-03-24T04:20:45;17;15;
56175;PMS5003;63065;51.082;17.016;2023-03-24T04:23:11;13;13;
56175;PMS5003;63065;51.082;17.016;2023-03-24T04:25:38;13;13;
56175;PMS5003;63065;51.082;17.016;2023-03-24T04:28:03;16;15;
56175;PMS5003;63065;51.082;17.016;2023-03-24T04:30:29;13;13;
56175;PMS5003;63065;51.082;17.016;2023-03-24T04:32:53;16;13;
56175;PMS5003;63065;51.082;17.016;2023-03-24T04:35:18;17;14;
56175;PMS5003;63065;51.082;17.016;2023-03-24T04:37:43;10;10;
56175;PMS5003;63065;51.082;17.016;2023-03-24T04:40:10;13;13;
56175;PMS5003;63065;51.082;17.016;2023-03-24T04:42:35;13;10;
56175;PMS5003;63065;51.082;17.016;2023-03-24T04:45:01;11;11;
56175;PMS5003;63065;51.082;17.016;2023-03-24T04:47:26;15;13;
56175;PMS5003;63065;51.082;17.016;2023-03-24T04:49:51;10;10;
56175;PMS5003;63065;51.082;17.016;2023-03-24T04:52:16;9;9;
56175;PMS5003;63065;51.082;17.016;2023-03-24T04:54:42;14;12;
56175;PMS5003;63065;51.082;17.016;2023-03-24T04:57:08;14;11;
56175;PMS5003;63065;51.082;17.016;2023-03-24T04:59:34;10;10;
56175;PMS5003;63065;51.082;17.016;2023-03-24T05:01:59;11;11;
56175;PMS5003;63065;51.082;17.016;2023-03-24T05:04:26;15;15;
56175;PMS5003;63065;51.082;17.016;2023-03-24T05:06:50;14;13;
56175;PMS5003;63065;51.082;17.016;2023-03-24T05:09:16;9;9;
56175;PMS5003;63065;51.082;17.016;2023-03-24T05:11:42;13;13;
56175;PMS5003;63065;51.082;17.016;2023-03-24T05:14:07;9;9;
56175;PMS5003;63065;51.082;17.016;2023-03-24T05:16:33;8;8;
56175;PMS5003;63065;51.082;17.016;2023-03-24T05:18:59;11;11;
56175;PMS5003;63065;51.082;17.016;2023-03-24T05:21:25;11;11;
56175;PMS5003;63065;51.082;17.016;2023-03-24T05:23:50;11;9;
56175;PMS5003;63065;51.082;17.016;2023-03-24T05:26:17;11;10;
56175;PMS5003;63065;51.082;17.016;2023-03-24T05:28:42;11;9;
56175;PMS5003;63065;51.082;17.016;2023-03-24T05:31:07;10;10;
56175;PMS5003;63065;51.082;17.016;2023-03-24T05:33:33;12;9;
56175;PMS5003;63065;51.082;17.016;2023-03-24T05:35:59;12;12;
56175;PMS5003;63065;51.082;17.016;2023-03-24T05:38:25;9;9;
56175;PMS5003;63065;51.082;17.016;2023-03-24T05:40:49;14;12;
56175;PMS5003;63065;51.082;17.016;2023-03-24T05:43:15;13;13;
56175;PMS5003;63065;51.082;17.016;2023-03-24T05:45:41;15;12;
56175;PMS5003;63065;51.082;17.016;2023-03-24T05:48:06;11;10;
56175;PMS5003;63065;51.082;17.016;2023-03-24T05:50:33;11;11;
56175;PMS5003;63065;51.082;17.016;2023-03-24T05:52:58;13;13;
56175;PMS5003;63065;51.082;17.016;2023-03-24T05:55:23;11;8;
56175;PMS5003;63065;51.082;17.016;2023-03-24T05:57:49;13;12;
56175;PMS5003;63065;51.082;17.016;2023-03-24T06:00:15;11;7;
56175;PMS5003;63065;51.082;17.016;2023-03-24T06:02:40;12;11;
56175;PMS5003;63065;51.082;17.016;2023-03-24T06:05:06;10;10;
56175;PMS5003;63065;51.082;17.016;2023-03-24T06:07:31;12;12;
56175;PMS5003;63065;51.082;17.016;2023-03-24T06:09:57;11;10;
56175;PMS5003;63065;51.082;17.016;2023-03-24T06:12:23;12;12;
56175;PMS5003;63065;51.082;17.016;2023-03-24T06:14:48;15;14;
56175;PMS5003;63065;51.082;17.016;2023-03-24T06:17:13;11;11;
56175;PMS5003;63065;51.082;17.016;2023-03-24T06:19:38;12;12;
56175;PMS5003;63065;51.082;17.016;2023-03-24T06:22:04;9;9;
56175;PMS5003;63065;51.082;17.016;2023-03-24T06:24:30;12;12;
56175;PMS5003;63065;51.082;17.016;2023-03-24T06:26:55;15;13;
56175;PMS5003;63065;51.082;17.016;2023-03-24T06:29:20;10;10;
56175;PMS5003;63065;51.082;17.016;2023-03-24T06:31:47;10;10;
56175;PMS5003;63065;51.082;17.016;2023-03-24T06:34:11;11;11;
56175;PMS5003;63065;51.082;17.016;2023-03-24T06:36:37;20;18;
56175;PMS5003;63065;51.082;17.016;2023-03-24T06:39:02;26;20;
56175;PMS5003;63065;51.082;17.016;2023-03-24T06:41:28;11;11;
56175;PMS5003;63065;51.082;17.016;2023-03-24T06:43:53;12;11;
56175;PMS5003;63065;51.082;17.016;2023-03-24T06:46:19;9;9;
56175;PMS5003;63065;51.082;17.016;2023-03-24T06:48:44;12;9;
56175;PMS5003;63065;51.082;17.016;2023-03-24T06:51:10;11;9;
56175;PMS5003;63065;51.082;17.016;2023-03-24T06:53:35;11;11;
56175;PMS5003;63065;51.082;17.016;2023-03-24T06:56:01;13;11;
56175;PMS5003;63065;51.082;17.016;2023-03-24T06:58:27;9;9;
56175;PMS5003;63065;51.082;17.016;2023-03-24T07:00:52;11;11;
56175;PMS5003;63065;51.082;17.016;2023-03-24T07:03:18;9;8;
56175;PMS5003;63065;51.082;17.016;2023-03-24T07:05:44;12;12;
56175;PMS5003;63065;51.082;17.016;2023-03-24T07:08:10;10;10;
56175;PMS5003;63065;51.082;17.016;2023-03-24T07:10:35;12;12;
56175;PMS5003;63065;51.082;17.016;2023-03-24T07:13:00;16;14;
56175;PMS5003;63065;51.082;17.016;2023-03-24T07:15:26;10;10;
56175;PMS5003;63065;51.082;17.016;2023-03-24T07:17:51;11;11;
56175;PMS5003;63065;51.082;17.016;2023-03-24T07:20:17;14;14;
56175;PMS5003;63065;51.082;17.016;2023-03-24T07:22:43;9;9;
56175;PMS5003;63065;51.082;17.016;2023-03-24T07:25:09;12;11;
56175;PMS5003;63065;51.082;17.016;2023-03-24T07:27:35;14;14;
56175;PMS5003;63065;51.082;17.016;2023-03-24T07:29:59;13;10;
56175;PMS5003;63065;51.082;17.016;2023-03-24T07:32:24;12;12;
56175;PMS5003;63065;51.082;17.016;2023-03-24T07:34:50;13;12;
56175;PMS5003;63065;51.082;17.016;2023-03-24T07:37:16;13;11;
56175;PMS5003;63065;51.082;17.016;2023-03-24T07:39:41;13;12;
56175;PMS5003;63065;51.082;17.016;2023-03-24T07:42:06;17;17;
56175;PMS5003;63065;51.082;17.016;2023-03-24T07:44:32;14;14;
56175;PMS5003;63065;51.082;17.016;2023-03-24T07:46:57;13;13;
56175;PMS5003;63065;51.082;17.016;2023-03-24T07:49:28;15;13;
56175;PMS5003;63065;51.082;17.016;2023-03-24T07:51:49;14;13;
56175;PMS5003;63065;51.082;17.016;2023-03-24T07:54:14;15;15;
56175;PMS5003;63065;51.082;17.016;2023-03-24T07:56:40;19;16;
56175;PMS5003;63065;51.082;17.016;2023-03-24T07:59:05;14;12;
56175;PMS5003;63065;51.082;17.016;2023-03-24T08:01:31;14;13;
56175;PMS5003;63065;51.082;17.016;2023-03-24T08:03:56;17;15;
56175;PMS5003;63065;51.082;17.016;2023-03-24T08:06:21;12;11;
56175;PMS5003;63065;51.082;17.016;2023-03-24T08:08:47;21;19;
56175;PMS5003;63065;51.082;17.016;2023-03-24T08:11:12;16;16;
56175;PMS5003;63065;51.082;17.016;2023-03-24T08:13:37;20;18;
56175;PMS5003;63065;51.082;17.016;2023-03-24T08:16:08;25;25;
56175;PMS5003;63065;51.082;17.016;2023-03-24T08:18:28;21;20;
56175;PMS5003;63065;51.082;17.016;2023-03-24T08:20:55;16;13;
56175;PMS5003;63065;51.082;17.016;2023-03-24T08:23:19;16;16;
56175;PMS5003;63065;51.082;17.016;2023-03-24T08:25:45;14;12;
56175;PMS5003;63065;51.082;17.016;2023-03-24T08:28:10;13;12;
56175;PMS5003;63065;51.082;17.016;2023-03-24T08:30:36;14;14;
56175;PMS5003;63065;51.082;17.016;2023-03-24T08:33:02;10;10;
56175;PMS5003;63065;51.082;17.016;2023-03-24T08:35:28;13;12;
56175;PMS5003;63065;51.082;17.016;2023-03-24T08:37:53;14;12;
56175;PMS5003;63065;51.082;17.016;2023-03-24T08:40:19;9;9;
56175;PMS5003;63065;51.082;17.016;2023-03-24T08:42:46;13;12;
56175;PMS5003;63065;51.082;17.016;2023-03-24T08:45:10;13;10;
56175;PMS5003;63065;51.082;17.016;2023-03-24T08:47:36;11;11;
56175;PMS5003;63065;51.082;17.016;2023-03-24T08:50:02;9;9;
56175;PMS5003;63065;51.082;17.016;2023-03-24T08:52:27;9;9;
56175;PMS5003;63065;51.082;17.016;2023-03-24T08:54:53;9;9;
56175;PMS5003;63065;51.082;17.016;2023-03-24T08:57:18;8;7;
56175;PMS5003;63065;51.082;17.016;2023-03-24T08:59:44;10;9;
56175;PMS5003;63065;51.082;17.016;2023-03-24T09:02:09;9;8;
56175;PMS5003;63065;51.082;17.016;2023-03-24T09:04:34;10;10;
56175;PMS5003;63065;51.082;17.016;2023-03-24T09:07:00;13;9;
56175;PMS5003;63065;51.082;17.016;2023-03-24T09:09:26;9;8;
56175;PMS5003;63065;51.082;17.016;2023-03-24T09:11:52;8;8;
56175;PMS5003;63065;51.082;17.016;2023-03-24T09:14:17;11;11;
56175;PMS5003;63065;51.082;17.016;2023-03-24T09:16:44;8;7;
56175;PMS5003;63065;51.082;17.016;2023-03-24T09:19:08;8;8;
56175;PMS5003;63065;51.082;17.016;2023-03-24T09:21:34;7;7;
56175;PMS5003;63065;51.082;17.016;2023-03-24T09:24:00;10;9;
56175;PMS5003;63065;51.082;17.016;2023-03-24T09:26:25;7;7;
56175;PMS5003;63065;51.082;17.016;2023-03-24T09:28:51;12;10;
56175;PMS5003;63065;51.082;17.016;2023-03-24T09:31:17;11;9;
56175;PMS5003;63065;51.082;17.016;2023-03-24T09:33:42;11;10;
56175;PMS5003;63065;51.082;17.016;2023-03-24T09:36:08;12;12;
56175;PMS5003;63065;51.082;17.016;2023-03-24T09:38:34;11;11;
56175;PMS5003;63065;51.082;17.016;2023-03-24T09:41:00;12;10;
56175;PMS5003;63065;51.082;17.016;2023-03-24T09:43:26;8;8;
56175;PMS5003;63065;51.082;17.016;2023-03-24T09:45:52;6;6;
56175;PMS5003;63065;51.082;17.016;2023-03-24T09:48:18;5;4;
56175;PMS5003;63065;51.082;17.016;2023-03-24T09:50:45;7;5;
56175;PMS5003;63065;51.082;17.016;2023-03-24T09:53:12;5;5;
56175;PMS5003;63065;51.082;17.016;2023-03-24T09:55:34;4;4;
56175;PMS5003;63065;51.082;17.016;2023-03-24T09:58:02;6;6;
56175;PMS5003;63065;51.082;17.016;2023-03-24T10:00:27;4;4;
56175;PMS5003;63065;51.082;17.016;2023-03-24T10:02:52;5;5;
56175;PMS5003;63065;51.082;17.016;2023-03-24T10:05:19;4;4;
56175;PMS5003;63065;51.082;17.016;2023-03-24T10:07:44;5;5;
56175;PMS5003;63065;51.082;17.016;2023-03-24T10:10:13;6;6;
56175;PMS5003;63065;51.082;17.016;2023-03-24T10:12:35;4;4;
56175;PMS5003;63065;51.082;17.016;2023-03-24T10:15:05;6;6;
56175;PMS5003;63065;51.082;17.016;2023-03-24T10:17:28;7;6;
56175;PMS5003;63065;51.082;17.016;2023-03-24T10:19:52;3;3;
56175;PMS5003;63065;51.082;17.016;2023-03-24T10:22:18;8;6;
56175;PMS5003;63065;51.082;17.016;2023-03-24T10:24:44;4;4;
56175;PMS5003;63065;51.082;17.016;2023-03-24T10:27:09;5;5;
56175;PMS5003;63065;51.082;17.016;2023-03-24T10:29:35;6;5;
56175;PMS5003;63065;51.082;17.016;2023-03-24T10:32:01;9;5;
56175;PMS5003;63065;51.082;17.016;2023-03-24T10:34:26;3;3;
56175;PMS5003;63065;51.082;17.016;2023-03-24T10:36:51;4;4;
56175;PMS5003;63065;51.082;17.016;2023-03-24T10:39:17;5;4;
56175;PMS5003;63065;51.082;17.016;2023-03-24T10:41:44;5;5;
56175;PMS5003;63065;51.082;17.016;2023-03-24T10:44:11;6;6;
56175;PMS5003;63065;51.082;17.016;2023-03-24T10:46:43;7;6;
56175;PMS5003;63065;51.082;17.016;2023-03-24T10:51:29;4;4;
56175;PMS5003;63065;51.082;17.016;2023-03-24T10:54:08;9;6;
56175;PMS5003;63065;51.082;17.016;2023-03-24T10:56:21;6;6;
56175;PMS5003;63065;51.082;17.016;2023-03-24T10:58:45;5;5;
56175;PMS5003;63065;51.082;17.016;2023-03-24T11:03:36;8;8;
56175;PMS5003;63065;51.082;17.016;2023-03-24T11:06:03;5;5;
56175;PMS5003;63065;51.082;17.016;2023-03-24T11:08:27;5;5;
56175;PMS5003;63065;51.082;17.016;2023-03-24T11:10:54;5;4;
56175;PMS5003;63065;51.082;17.016;2023-03-24T11:13:18;6;6;
56175;PMS5003;63065;51.082;17.016;2023-03-24T11:18:13;6;6;
56175;PMS5003;63065;51.082;17.016;2023-03-24T11:20:35;8;7;
56175;PMS5003;63065;51.082;17.016;2023-03-24T11:23:01;7;7;
56175;PMS5003;63065;51.082;17.016;2023-03-24T11:25:27;5;5;
56175;PMS5003;63065;51.082;17.016;2023-03-24T11:27:52;9;7;
56175;PMS5003;63065;51.082;17.016;2023-03-24T11:30:18;9;8;
56175;PMS5003;63065;51.082;17.016;2023-03-24T11:32:44;7;7;
56175;PMS5003;63065;51.082;17.016;2023-03-24T11:35:10;6;6;
56175;PMS5003;63065;51.082;17.016;2023-03-24T11:37:35;10;7;
56175;PMS5003;63065;51.082;17.016;2023-03-24T11:40:13;8;8;
56175;PMS5003;63065;51.082;17.016;2023-03-24T11:42:26;7;7;
56175;PMS5003;63065;51.082;17.016;2023-03-24T11:44:52;7;6;
56175;PMS5003;63065;51.082;17.016;2023-03-24T11:47:20;9;9;
56175;PMS5003;63065;51.082;17.016;2023-03-24T11:49:45;5;5;
56175;PMS5003;63065;51.082;17.016;2023-03-24T11:52:12;6;6;
56175;PMS5003;63065;51.082;17.016;2023-03-24T11:54:34;7;6;
56175;PMS5003;63065;51.082;17.016;2023-03-24T11:57:01;6;5;
56175;PMS5003;63065;51.082;17.016;2023-03-24T11:59:32;6;6;
56175;PMS5003;63065;51.082;17.016;2023-03-24T12:01:54;9;8;
56175;PMS5003;63065;51.082;17.016;2023-03-24T12:04:21;9;7;
56175;PMS5003;63065;51.082;17.016;2023-03-24T12:06:47;5;5;
56175;PMS5003;63065;51.082;17.016;2023-03-24T12:09:12;6;6;
56175;PMS5003;63065;51.082;17.016;2023-03-24T12:11:38;6;6;
56175;PMS5003;63065;51.082;17.016;2023-03-24T12:14:00;9;9;
56175;PMS5003;63065;51.082;17.016;2023-03-24T12:16:29;12;12;
56175;PMS5003;63065;51.082;17.016;2023-03-24T12:18:54;7;6;
56175;PMS5003;63065;51.082;17.016;2023-03-24T12:21:18;8;8;
56175;PMS5003;63065;51.082;17.016;2023-03-24T12:23:43;10;10;
56175;PMS5003;63065;51.082;17.016;2023-03-24T12:26:12;10;10;
56175;PMS5003;63065;51.082;17.016;2023-03-24T12:28:37;10;9;
56175;PMS5003;63065;51.082;17.016;2023-03-24T12:31:02;7;7;
56175;PMS5003;63065;51.082;17.016;2023-03-24T12:33:28;7;6;
56175;PMS5003;63065;51.082;17.016;2023-03-24T12:35:54;8;8;
56175;PMS5003;63065;51.082;17.016;2023-03-24T12:38:20;9;7;
56175;PMS5003;63065;51.082;17.016;2023-03-24T12:40:47;5;5;
56175;PMS5003;63065;51.082;17.016;2023-03-24T12:43:10;9;9;
56175;PMS5003;63065;51.082;17.016;2023-03-24T12:45:36;9;9;
56175;PMS5003;63065;51.082;17.016;2023-03-24T12:48:03;12;12;
56175;PMS5003;63065;51.082;17.016;2023-03-24T12:50:27;11;9;
56175;PMS5003;63065;51.082;17.016;2023-03-24T12:52:53;14;14;
56175;PMS5003;63065;51.082;17.016;2023-03-24T12:55:16;11;11;
56175;PMS5003;63065;51.082;17.016;2023-03-24T12:57:41;10;9;
56175;PMS5003;63065;51.082;17.016;2023-03-24T13:00:09;12;11;
56175;PMS5003;63065;51.082;17.016;2023-03-24T13:02:32;11;8;
56175;PMS5003;63065;51.082;17.016;2023-03-24T13:04:59;14;12;
56175;PMS5003;63065;51.082;17.016;2023-03-24T13:07:23;13;11;
56175;PMS5003;63065;51.082;17.016;2023-03-24T13:09:48;10;10;
56175;PMS5003;63065;51.082;17.016;2023-03-24T13:12:14;11;9;
56175;PMS5003;63065;51.082;17.016;2023-03-24T13:14:41;12;12;
56175;PMS5003;63065;51.082;17.016;2023-03-24T13:17:05;11;11;
56175;PMS5003;63065;51.082;17.016;2023-03-24T13:19:30;12;10;
56175;PMS5003;63065;51.082;17.016;2023-03-24T13:21:55;14;12;
56175;PMS5003;63065;51.082;17.016;2023-03-24T13:24:21;8;8;
56175;PMS5003;63065;51.082;17.016;2023-03-24T13:26:49;13;11;
56175;PMS5003;63065;51.082;17.016;2023-03-24T13:29:15;13;11;
56175;PMS5003;63065;51.082;17.016;2023-03-24T13:31:38;11;10;
56175;PMS5003;63065;51.082;17.016;2023-03-24T13:34:04;17;16;
56175;PMS5003;63065;51.082;17.016;2023-03-24T13:36:34;12;12;
56175;PMS5003;63065;51.082;17.016;2023-03-24T13:38:54;11;11;
56175;PMS5003;63065;51.082;17.016;2023-03-24T13:41:20;11;11;
56175;PMS5003;63065;51.082;17.016;2023-03-24T13:43:46;10;8;
56175;PMS5003;63065;51.082;17.016;2023-03-24T13:46:11;8;8;
56175;PMS5003;63065;51.082;17.016;2023-03-24T13:48:37;11;10;
56175;PMS5003;63065;51.082;17.016;2023-03-24T13:51:03;9;9;
56175;PMS5003;63065;51.082;17.016;2023-03-24T13:53:31;10;10;
56175;PMS5003;63065;51.082;17.016;2023-03-24T13:55:54;10;8;
56175;PMS5003;63065;51.082;17.016;2023-03-24T13:58:21;9;9;
56175;PMS5003;63065;51.082;17.016;2023-03-24T14:03:12;14;13;
56175;PMS5003;63065;51.082;17.016;2023-03-24T14:12:56;11;9;
56175;PMS5003;63065;51.082;17.016;2023-03-24T14:15:20;11;11;
56175;PMS5003;63065;51.082;17.016;2023-03-24T14:17:47;11;10;
56175;PMS5003;63065;51.082;17.016;2023-03-24T14:20:15;10;10;
56175;PMS5003;63065;51.082;17.016;2023-03-24T14:22:38;13;12;
56175;PMS5003;63065;51.082;17.016;2023-03-24T14:25:03;9;9;
56175;PMS5003;63065;51.082;17.016;2023-03-24T14:27:31;10;10;
56175;PMS5003;63065;51.082;17.016;2023-03-24T14:29:53;10;9;
56175;PMS5003;63065;51.082;17.016;2023-03-24T14:32:19;11;10;
56175;PMS5003;63065;51.082;17.016;2023-03-24T14:34:49;10;10;
56175;PMS5003;63065;51.082;17.016;2023-03-24T14:37:12;11;10;
56175;PMS5003;63065;51.082;17.016;2023-03-24T14:39:38;16;13;
56175;PMS5003;63065;51.082;17.016;2023-03-24T14:46:54;9;9;
56175;PMS5003;63065;51.082;17.016;2023-03-24T14:49:21;10;10;
56175;PMS5003;63065;51.082;17.016;2023-03-24T14:51:47;8;6;
56175;PMS5003;63065;51.082;17.016;2023-03-24T14:54:14;9;9;
56175;PMS5003;63065;51.082;17.016;2023-03-24T14:56:38;10;9;
56175;PMS5003;63065;51.082;17.016;2023-03-24T14:59:04;9;9;
56175;PMS5003;63065;51.082;17.016;2023-03-24T15:01:29;10;9;
56175;PMS5003;63065;51.082;17.016;2023-03-24T15:03:54;7;6;
56175;PMS5003;63065;51.082;17.016;2023-03-24T15:06:20;10;10;
56175;PMS5003;63065;51.082;17.016;2023-03-24T15:08:47;8;8;
56175;PMS5003;63065;51.082;17.016;2023-03-24T15:11:12;8;8;
56175;PMS5003;63065;51.082;17.016;2023-03-24T15:13:37;8;8;
56175;PMS5003;63065;51.082;17.016;2023-03-24T15:16:02;7;7;
56175;PMS5003;63065;51.082;17.016;2023-03-24T15:18:27;8;7;
56175;PMS5003;63065;51.082;17.016;2023-03-24T15:20:53;8;7;
56175;PMS5003;63065;51.082;17.016;2023-03-24T15:23:20;6;5;
56175;PMS5003;63065;51.082;17.016;2023-03-24T15:25:45;9;9;
56175;PMS5003;63065;51.082;17.016;2023-03-24T15:28:14;9;9;
56175;PMS5003;63065;51.082;17.016;2023-03-24T15:30:36;10;9;
56175;PMS5003;63065;51.082;17.016;2023-03-24T15:33:11;7;7;
56175;PMS5003;63065;51.082;17.016;2023-03-24T15:35:28;6;6;
56175;PMS5003;63065;51.082;17.016;2023-03-24T15:37:54;7;6;
56175;PMS5003;63065;51.082;17.016;2023-03-24T15:42:45;7;7;
56175;PMS5003;63065;51.082;17.016;2023-03-24T15:45:22;8;8;
56175;PMS5003;63065;51.082;17.016;2023-03-24T15:47:36;8;8;
56175;PMS5003;63065;51.082;17.016;2023-03-24T15:50:01;8;8;
56175;PMS5003;63065;51.082;17.016;2023-03-24T15:52:28;8;8;
56175;PMS5003;63065;51.082;17.016;2023-03-24T15:54:53;9;9;
56175;PMS5003;63065;51.082;17.016;2023-03-24T15:57:19;8;8;
56175;PMS5003;63065;51.082;17.016;2023-03-24T15:59:46;9;7;
56175;PMS5003;63065;51.082;17.016;2023-03-24T16:02:11;8;8;
56175;PMS5003;63065;51.082;17.016;2023-03-24T16:04:36;10;9;
56175;PMS5003;63065;51.082;17.016;2023-03-24T16:07:02;8;8;
56175;PMS5003;63065;51.082;17.016;2023-03-24T16:11:53;6;5;
56175;PMS5003;63065;51.082;17.016;2023-03-24T16:14:20;6;6;
56175;PMS5003;63065;51.082;17.016;2023-03-24T16:16:44;5;5;
56175;PMS5003;63065;51.082;17.016;2023-03-24T16:19:10;9;7;
56175;PMS5003;63065;51.082;17.016;2023-03-24T16:21:35;7;7;
56175;PMS5003;63065;51.082;17.016;2023-03-24T16:24:01;9;7;
56175;PMS5003;63065;51.082;17.016;2023-03-24T16:26:27;13;12;
56175;PMS5003;63065;51.082;17.016;2023-03-24T16:28:52;7;7;
56175;PMS5003;63065;51.082;17.016;2023-03-24T16:31:19;7;7;
56175;PMS5003;63065;51.082;17.016;2023-03-24T16:33:43;7;7;
56175;PMS5003;63065;51.082;17.016;2023-03-24T16:36:10;6;6;
56175;PMS5003;63065;51.082;17.016;2023-03-24T16:38:35;6;6;
56175;PMS5003;63065;51.082;17.016;2023-03-24T16:41:01;5;5;
56175;PMS5003;63065;51.082;17.016;2023-03-24T16:43:27;8;6;